Time;durP1;ratioP1;P1;durP2;ratioP2;P2;SDS_P1;SDS_P2;PMS_P1;PMS_P2;Temp;Humidity;BMP_temperature;BMP_pressure;BME280_temperature;BME280_humidity;BME280_pressure;Samples;Min_cycle;Max_cycle;Signal;HPM_P1;HPM_P2
2021/05/28 00:02:54;;;;;;;2.03;1.05;;;;;;;8.45;100.00;100422.88;4806825;29;20046;-76
2021/05/28 00:05:58;;;;;;;5.40;1.38;;;;;;;8.47;100.00;100423.19;4806871;29;20053;-76
2021/05/28 00:09:03;;;;;;;2.28;1.42;;;;;;;8.48;100.00;100429.53;4806987;29;20069;-77
2021/05/28 00:12:07;;;;;;;5.55;1.52;;;;;;;8.49;100.00;100434.63;4806040;29;20054;-76
2021/05/28 00:15:13;;;;;;;7.35;1.88;;;;;;;8.50;100.00;100427.88;4805984;29;20054;-77
2021/05/28 00:18:17;;;;;;;9.38;2.55;;;;;;;8.49;100.00;100429.06;4805506;29;20533;-76
2021/05/28 00:21:20;;;;;;;6.43;2.20;;;;;;;8.51;100.00;100437.72;4805943;29;20058;-76
2021/05/28 00:24:24;;;;;;;3.70;1.70;;;;;;;8.54;100.00;100436.84;4806076;29;20066;-78
2021/05/28 00:27:30;;;;;;;4.68;1.80;;;;;;;8.55;100.00;100443.19;4794731;29;20404;-78
2021/05/28 00:30:34;;;;;;;2.55;1.70;;;;;;;8.56;100.00;100439.94;4784522;29;20058;-77
2021/05/28 00:33:38;;;;;;;4.90;1.30;;;;;;;8.57;100.00;100452.63;4805829;29;20046;-77
2021/05/28 00:36:41;;;;;;;1.60;0.93;;;;;;;8.56;100.00;100450.25;4805910;29;20042;-78
2021/05/28 00:39:44;;;;;;;6.93;1.52;;;;;;;8.52;100.00;100438.50;4806020;29;20567;-78
2021/05/28 00:42:48;;;;;;;5.20;1.73;;;;;;;8.52;100.00;100450.41;4806026;29;20058;-78
2021/05/28 00:45:51;;;;;;;12.25;2.92;;;;;;;8.53;100.00;100451.97;4805722;29;20041;-78
2021/05/28 00:48:55;;;;;;;2.28;1.50;;;;;;;8.52;100.00;100444.84;4805650;29;20042;-78
2021/05/28 00:51:59;;;;;;;5.05;2.40;;;;;;;8.53;100.00;100440.84;4794424;29;20046;-78
2021/05/28 00:55:04;;;;;;;3.70;1.38;;;;;;;8.55;100.00;100443.19;4805517;29;20061;-78
2021/05/28 00:58:08;;;;;;;2.80;1.80;;;;;;;8.54;100.00;100456.28;4805667;29;20046;-76
2021/05/28 01:01:12;;;;;;;5.43;2.28;;;;;;;8.55;100.00;100459.84;4805683;29;20050;-77
2021/05/28 01:04:16;;;;;;;2.40;1.48;;;;;;;8.55;100.00;100457.84;4805920;29;20050;-76
2021/05/28 01:07:19;;;;;;;5.88;2.08;;;;;;;8.54;100.00;100458.28;4815211;29;20510;-77
2021/05/28 01:10:23;;;;;;;5.15;1.73;;;;;;;8.51;100.00;100465.47;4823739;29;20503;-77
2021/05/28 01:13:27;;;;;;;2.33;1.52;;;;;;;8.52;100.00;100455.16;4823668;29;20058;-78
2021/05/28 01:16:31;;;;;;;2.08;0.82;;;;;;;8.52;100.00;100450.41;4823724;29;20410;-78
2021/05/28 01:19:34;;;;;;;9.02;1.65;;;;;;;8.52;100.00;100450.41;4823937;29;20069;-78
2021/05/28 01:22:38;;;;;;;4.68;2.17;;;;;;;8.54;100.00;100458.28;4823458;29;20049;-78
2021/05/28 01:25:42;;;;;;;4.68;1.55;;;;;;;8.54;100.00;100459.06;4823699;29;20049;-78
2021/05/28 01:28:46;;;;;;;4.45;1.35;;;;;;;8.57;100.00;100455.41;4823858;29;20053;-78
2021/05/28 01:31:49;;;;;;;2.38;1.67;;;;;;;8.58;100.00;100459.72;4827251;29;20514;-78
2021/05/28 01:34:53;;;;;;;4.38;2.42;;;;;;;8.58;100.00;100459.72;4827383;29;20057;-77
2021/05/28 01:37:57;;;;;;;2.28;1.88;;;;;;;8.59;100.00;100455.72;4826792;29;20042;-78
2021/05/28 01:41:00;;;;;;;3.53;1.27;;;;;;;8.60;100.00;100457.25;4826805;29;20054;-78
2021/05/28 01:44:11;;;;;;;4.47;2.15;;;;;;;8.59;100.00;100455.72;4826910;29;20506;-77
2021/05/28 01:47:15;;;;;;;6.15;2.35;;;;;;;8.59;100.00;100458.50;4826765;29;20050;-78
2021/05/28 01:50:19;;;;;;;5.78;1.48;;;;;;;8.59;100.00;100454.94;4826682;29;20049;-78
2021/05/28 01:53:25;;;;;;;2.63;1.58;;;;;;;8.59;100.00;100464.06;4815261;29;20050;-77
2021/05/28 01:56:29;;;;;;;4.15;1.40;;;;;;;8.61;100.00;100458.81;4826538;29;20395;-78
2021/05/28 01:59:33;;;;;;;1.98;1.45;;;;;;;8.59;100.00;100454.94;4826268;29;20053;-78
2021/05/28 02:02:36;;;;;;;2.13;1.65;;;;;;;8.55;100.00;100455.06;4826233;29;20109;-78
2021/05/28 02:05:42;;;;;;;3.25;1.33;;;;;;;8.56;100.00;100459.38;4826238;29;20049;-78
2021/05/28 02:08:46;;;;;;;2.15;1.45;;;;;;;8.54;100.00;100467.38;4790498;30;20062;-78
2021/05/28 02:11:50;;;;;;;4.65;1.92;;;;;;;8.55;100.00;100463.41;4790204;30;20042;-78
2021/05/28 02:14:57;;;;;;;3.50;2.05;;;;;;;8.52;100.00;100455.94;4790479;30;20055;-78
2021/05/28 02:18:01;;;;;;;3.15;1.83;;;;;;;8.52;100.00;100463.50;4790178;30;20050;-77
2021/05/28 02:21:04;;;;;;;4.20;1.92;;;;;;;8.50;100.00;100465.94;4778932;30;20055;-77
2021/05/28 02:24:12;;;;;;;4.97;2.15;;;;;;;8.47;100.00;100464.06;4790282;30;20054;-79
2021/05/28 02:27:15;;;;;;;6.95;1.98;;;;;;;8.47;100.00;100467.59;4778828;30;20042;-77
2021/05/28 02:30:18;;;;;;;5.93;1.23;;;;;;;8.46;100.00;100468.84;4778759;30;20065;-77
2021/05/28 02:33:22;;;;;;;2.03;1.63;;;;;;;8.45;100.00;100472.81;4790142;30;20051;-77
2021/05/28 02:36:25;;;;;;;1.70;1.60;;;;;;;8.44;100.00;100465.75;4778607;30;20070;-76
2021/05/28 02:39:29;;;;;;;9.40;2.08;;;;;;;8.44;100.00;100465.75;4789752;30;20042;-79
2021/05/28 02:42:32;;;;;;;6.25;2.55;;;;;;;8.45;100.00;100472.81;4788824;29;20054;-78
2021/05/28 02:45:36;;;;;;;3.47;1.33;;;;;;;8.44;100.00;100471.28;4789768;30;20050;-78
2021/05/28 02:48:40;;;;;;;3.58;1.45;;;;;;;8.43;100.00;100463.38;4789732;30;20051;-77
2021/05/28 02:51:43;;;;;;;5.40;1.67;;;;;;;8.41;100.00;100461.06;4789574;30;20412;-77
2021/05/28 02:54:48;;;;;;;4.78;2.05;;;;;;;8.39;100.00;100457.97;4789371;30;20050;-77
2021/05/28 02:57:51;;;;;;;6.28;2.50;;;;;;;8.38;100.00;100465.50;4789856;30;20058;-77
2021/05/28 03:00:55;;;;;;;2.97;1.48;;;;;;;8.36;100.00;100469.94;4789533;30;20046;-77
2021/05/28 03:03:58;;;;;;;3.85;1.35;;;;;;;8.34;100.00;100461.28;4789787;30;20504;-77
2021/05/28 03:07:02;;;;;;;4.65;2.00;;;;;;;8.32;100.00;100463.72;4803835;29;20049;-77
2021/05/28 03:10:07;;;;;;;5.30;1.73;;;;;;;8.29;100.00;100472.97;4825548;29;20057;-77
2021/05/28 03:13:11;;;;;;;3.92;2.20;;;;;;;8.23;100.00;100469.16;4825164;29;20388;-77
2021/05/28 03:16:15;;;;;;;4.47;1.58;;;;;;;8.19;100.00;100468.47;4825227;29;20380;-77
2021/05/28 03:19:26;;;;;;;6.65;1.83;;;;;;;8.12;100.00;100465.94;4825624;29;20054;-77
2021/05/28 03:25:38;;;;;;;3.95;1.23;;;;;;;8.06;100.00;100481.56;4825395;29;20049;-77
2021/05/28 03:28:41;;;;;;;9.38;1.40;;;;;;;8.01;100.00;100482.16;4825389;29;20498;-77
2021/05/28 03:31:45;;;;;;;2.22;1.55;;;;;;;8.02;100.00;100486.47;4825452;29;20053;-77
2021/05/28 03:34:48;;;;;;;6.05;1.92;;;;;;;7.99;100.00;100470.72;4813754;29;20057;-77
2021/05/28 03:37:52;;;;;;;2.75;1.38;;;;;;;7.97;100.00;100471.13;4825252;29;20069;-77
2021/05/28 03:40:55;;;;;;;2.78;1.10;;;;;;;7.94;100.00;100482.34;4825348;29;20049;-77
2021/05/28 03:43:58;;;;;;;5.00;2.25;;;;;;;7.90;100.00;100470.59;4825043;29;20049;-77
2021/05/28 03:47:02;;;;;;;1.40;1.15;;;;;;;7.88;100.00;100467.50;4825067;29;20041;-77
2021/05/28 03:50:07;;;;;;;4.63;1.80;;;;;;;7.88;100.00;100475.81;4824901;29;20059;-78
2021/05/28 03:53:11;;;;;;;1.98;1.40;;;;;;;7.85;100.00;100473.91;4825544;29;20049;-77
2021/05/28 03:56:14;;;;;;;3.25;2.03;;;;;;;7.85;100.00;100468.38;4826868;29;20049;-77
2021/05/28 03:59:17;;;;;;;3.30;1.83;;;;;;;7.82;100.00;100466.50;4828561;29;20045;-77
2021/05/28 04:02:21;;;;;;;3.42;1.52;;;;;;;7.81;100.00;100473.25;4824886;29;20045;-77
2021/05/28 04:05:24;;;;;;;6.18;1.90;;;;;;;7.83;100.00;100477.13;4824649;29;20042;-77
2021/05/28 04:08:28;;;;;;;3.85;1.92;;;;;;;7.88;100.00;100484.13;4806338;29;20507;-77
2021/05/28 04:11:31;;;;;;;9.32;1.60;;;;;;;7.91;100.00;100480.44;4806279;29;20045;-77
2021/05/28 04:14:36;;;;;;;9.13;2.08;;;;;;;7.92;100.00;100477.25;4806094;29;20512;-77
2021/05/28 04:17:39;;;;;;;3.53;1.45;;;;;;;7.96;100.00;100485.47;4806280;29;20417;-77
2021/05/28 04:20:44;;;;;;;1.88;1.23;;;;;;;7.99;100.00;100479.78;4805719;29;20046;-78
2021/05/28 04:23:47;;;;;;;2.55;1.48;;;;;;;8.00;100.00;100486.91;4805819;29;20046;-77
2021/05/28 04:26:51;;;;;;;5.20;1.80;;;;;;;8.01;100.00;100476.59;4805734;29;20065;-78
2021/05/28 04:29:54;;;;;;;3.90;1.05;;;;;;;8.03;100.00;100485.25;4806031;29;20503;-78
2021/05/28 04:32:57;;;;;;;4.30;1.27;;;;;;;8.07;100.00;100485.91;4794791;29;20046;-78
2021/05/28 04:36:01;;;;;;;2.95;1.30;;;;;;;8.10;100.00;100482.28;4805928;29;20045;-78
2021/05/28 04:39:04;;;;;;;2.03;1.35;;;;;;;8.14;100.00;100480.16;4805990;29;20045;-78
2021/05/28 04:42:08;;;;;;;2.85;1.95;;;;;;;8.21;100.00;100488.22;4805824;29;20050;-78
2021/05/28 04:45:11;;;;;;;5.00;1.92;;;;;;;8.26;100.00;100482.16;4806081;29;20503;-78
2021/05/28 04:48:15;;;;;;;7.85;2.20;;;;;;;8.31;100.00;100482.41;4794727;29;20051;-78
2021/05/28 04:51:18;;;;;;;3.13;1.63;;;;;;;8.39;100.00;100492.06;4805828;29;20050;-78
2021/05/28 04:54:22;;;;;;;1.85;1.42;;;;;;;8.46;100.00;100485.50;4805714;29;20042;-78
2021/05/28 04:57:25;;;;;;;1.30;1.20;;;;;;;8.56;100.00;100489.91;4805684;29;20095;-78
2021/05/28 05:00:29;;;;;;;2.65;1.52;;;;;;;8.65;100.00;100487.25;4794439;29;20376;-78
2021/05/28 05:03:33;;;;;;;3.28;1.52;;;;;;;8.75;100.00;100488.88;4805718;29;20070;-78
2021/05/28 05:06:36;;;;;;;6.55;2.97;;;;;;;8.84;100.00;100483.41;4812733;29;20041;-78
2021/05/28 05:09:39;;;;;;;8.23;4.38;;;;;;;8.93;100.00;100486.28;4816208;29;20049;-78
2021/05/28 05:12:43;;;;;;;20.08;5.88;;;;;;;9.02;100.00;100483.59;4816143;29;20380;-78
2021/05/28 05:15:46;;;;;;;17.10;4.57;;;;;;;9.14;100.00;100491.09;4827273;29;20118;-78
2021/05/28 05:18:50;;;;;;;8.50;4.82;;;;;;;9.22;100.00;100485.31;4827247;29;20042;-78
2021/05/28 05:21:54;;;;;;;3.88;2.58;;;;;;;9.29;100.00;100496.94;4815895;29;20081;-78
2021/05/28 05:24:57;;;;;;;4.55;2.42;;;;;;;9.35;100.00;100494.34;4827146;29;20097;-78
2021/05/28 05:28:00;;;;;;;13.32;3.10;;;;;;;9.43;100.00;100492.88;4827052;29;20049;-78
2021/05/28 05:31:03;;;;;;;17.23;3.58;;;;;;;9.47;100.00;100497.06;4826846;29;20045;-78
2021/05/28 05:34:07;;;;;;;7.38;3.08;;;;;;;9.54;100.00;100507.94;4826837;29;20057;-78
2021/05/28 05:37:12;;;;;;;2.92;1.83;;;;;;;9.65;100.00;100497.22;4826766;29;20049;-78
2021/05/28 05:40:15;;;;;;;8.07;2.15;;;;;;;9.74;100.00;100499.28;4826812;29;20041;-78
2021/05/28 05:43:18;;;;;;;7.53;1.70;;;;;;;9.83;100.00;100507.69;4826748;29;20384;-78
2021/05/28 05:46:21;;;;;;;6.93;2.17;;;;;;;9.94;100.00;100502.47;4826807;29;20049;-78
2021/05/28 05:49:25;;;;;;;6.05;1.95;;;;;;;10.08;100.00;100507.50;4826734;29;20053;-78
2021/05/28 05:52:29;;;;;;;4.85;1.40;;;;;;;10.22;100.00;100506.97;4826696;29;20062;-78
2021/05/28 05:55:33;;;;;;;6.45;2.65;;;;;;;10.35;100.00;100510.44;4826443;29;20077;-78
2021/05/28 05:58:37;;;;;;;12.55;2.35;;;;;;;10.47;100.00;100509.56;4826995;29;20053;-78
2021/05/28 06:01:40;;;;;;;5.72;1.83;;;;;;;10.61;100.00;100505.44;4827136;29;20038;-78
2021/05/28 06:04:43;;;;;;;6.57;2.65;;;;;;;10.74;100.00;100510.88;4826956;29;20042;-79
2021/05/28 06:07:47;;;;;;;10.98;3.67;;;;;;;10.86;100.00;100516.31;4801961;29;20046;-79
2021/05/28 06:10:50;;;;;;;9.68;3.28;;;;;;;10.96;100.00;100508.75;4790236;30;20043;-78
2021/05/28 06:13:54;;;;;;;19.10;6.13;;;;;;;11.09;100.00;100514.94;4790276;30;20062;-78
2021/05/28 06:16:57;;;;;;;25.70;5.45;;;;;;;11.20;100.00;100515.25;4790242;29;20051;-79
2021/05/28 06:20:01;;;;;;;18.05;5.20;;;;;;;11.26;100.00;100516.22;4779108;30;20410;-79
2021/05/28 06:23:04;;;;;;;15.40;5.07;;;;;;;11.37;100.00;100522.09;4789962;29;20043;-78
2021/05/28 06:26:08;;;;;;;21.52;4.63;;;;;;;11.45;100.00;100523.34;4790113;30;20389;-78
2021/05/28 06:29:11;;;;;;;13.52;4.57;;;;;;;11.55;100.00;100522.09;4790081;30;20096;-79
2021/05/28 06:32:15;;;;;;;12.15;4.07;;;;;;;11.67;100.00;100523.22;4788969;30;20035;-79
2021/05/28 06:35:19;;;;;;;11.90;4.07;;;;;;;11.69;100.00;100521.50;4789737;30;20040;-78
2021/05/28 06:38:22;;;;;;;7.00;3.70;;;;;;;11.73;100.00;100524.91;4789647;30;20039;-79
2021/05/28 06:41:25;;;;;;;9.77;3.28;;;;;;;11.74;100.00;100528.44;4789708;30;20058;-80
2021/05/28 06:44:29;;;;;;;8.90;4.53;;;;;;;11.67;100.00;100532.34;4789525;30;20062;-79
2021/05/28 06:47:33;;;;;;;7.05;2.97;;;;;;;11.63;100.00;100540.06;4789829;30;20050;-79
2021/05/28 06:50:40;;;;;;;9.00;2.75;;;;;;;11.63;100.00;100545.63;4789630;30;20050;-79
2021/05/28 06:53:43;;;;;;;6.97;3.03;;;;;;;11.67;100.00;100546.31;4789377;30;20050;-79
2021/05/28 06:56:47;;;;;;;7.28;2.67;;;;;;;11.76;100.00;100545.53;4789311;30;20512;-79
2021/05/28 06:59:50;;;;;;;9.35;2.50;;;;;;;11.86;100.00;100545.03;4778156;30;20046;-79
2021/05/28 07:02:55;;;;;;;6.20;2.13;;;;;;;11.95;100.00;100550.59;4788572;30;20058;-80
2021/05/28 07:05:58;;;;;;;6.43;2.67;;;;;;;12.04;100.00;100547.03;4790086;30;20042;-79
2021/05/28 07:09:03;;;;;;;5.43;2.85;;;;;;;12.11;100.00;100550.25;4827087;29;20049;-78
2021/05/28 07:12:07;;;;;;;9.82;3.28;;;;;;;12.15;100.00;100553.66;4825590;29;20057;-79
2021/05/28 07:15:11;;;;;;;10.65;3.45;;;;;;;12.17;100.00;100548.38;4825224;29;20061;-79
2021/05/28 07:18:15;;;;;;;4.03;2.15;;;;;;;12.13;100.00;100556.13;4825227;29;20042;-80
2021/05/28 07:21:18;;;;;;;6.35;2.63;;;;;;;12.18;100.00;100547.13;4825024;29;20392;-80
2021/05/28 07:24:21;;;;;;;8.90;2.97;;;;;;;12.28;100.00;100549.91;4825221;29;20057;-80
2021/05/28 07:27:26;;;;;;;8.98;3.03;;;;;;;12.38;100.00;100549.41;4825679;29;20064;-80
2021/05/28 07:30:29;;;;;;;12.40;3.85;;;;;;;12.47;100.00;100552.16;4825121;29;20395;-79
2021/05/28 07:33:33;;;;;;;10.85;3.63;;;;;;;12.52;100.00;100553.53;4825199;29;20051;-79
2021/05/28 07:36:37;;;;;;;9.07;3.33;;;;;;;12.58;100.00;100558.00;4814035;29;20038;-81
2021/05/28 07:39:40;;;;;;;7.15;2.80;;;;;;;12.63;100.00;100548.97;4825100;29;20046;-81
2021/05/28 07:42:43;;;;;;;9.40;3.55;;;;;;;12.70;100.00;100542.28;4813685;29;20050;-82
2021/05/28 07:45:51;;;;;;;13.65;3.05;;;;;;;12.83;100.00;100554.00;4825128;29;20061;-82
2021/05/28 07:48:54;;;;;;;6.38;2.33;;;;;;;12.96;100.00;100557.34;4824793;29;20034;-81
2021/05/28 07:51:57;;;;;;;11.88;3.63;;;;;;;13.12;100.00;100548.59;4824753;29;20057;-80
2021/05/28 07:55:01;;;;;;;3.42;2.05;;;;;;;13.31;100.00;100541.63;4824537;29;20043;-81
2021/05/28 07:58:04;;;;;;;17.30;3.10;;;;;;;13.53;100.00;100542.06;4824583;29;20547;-81
2021/05/28 08:01:08;;;;;;;14.15;3.38;;;;;;;13.85;100.00;100536.78;4813549;29;20039;-81
2021/05/28 08:04:11;;;;;;;11.13;3.13;;;;;;;14.03;100.00;100534.59;4824642;29;20034;-80
2021/05/28 08:07:14;;;;;;;14.63;3.78;;;;;;;14.23;100.00;100537.47;4815560;29;20485;-81
2021/05/28 08:10:18;;;;;;;13.50;3.80;;;;;;;14.40;100.00;100541.34;4806193;29;20039;-80
2021/05/28 08:13:22;;;;;;;13.75;2.95;;;;;;;14.64;100.00;100534.84;4806322;29;20043;-79
2021/05/28 08:16:25;;;;;;;10.52;3.78;;;;;;;14.60;100.00;100525.84;4806149;29;20054;-79
2021/05/28 08:19:29;;;;;;;7.90;3.40;;;;;;;14.76;100.00;100531.72;4806606;29;20035;-80
2021/05/28 08:22:33;;;;;;;10.13;3.45;;;;;;;14.91;100.00;100528.84;4807308;29;20460;-79
2021/05/28 08:25:36;;;;;;;13.73;3.08;;;;;;;14.99;100.00;100525.16;4807216;29;20034;-79
2021/05/28 08:28:40;;;;;;;8.98;3.25;;;;;;;15.00;100.00;100526.69;4807478;29;20050;-81
2021/05/28 08:31:43;;;;;;;11.57;3.75;;;;;;;15.03;100.00;100520.09;4807253;29;20376;-79
2021/05/28 08:34:47;;;;;;;7.78;3.80;;;;;;;15.25;100.00;100527.25;4806603;29;20042;-78
2021/05/28 08:37:50;;;;;;;8.82;2.90;;;;;;;15.44;100.00;100525.75;4806017;29;20050;-80
2021/05/28 08:40:53;;;;;;;11.73;3.45;;;;;;;15.56;100.00;100533.00;4794395;29;20384;-79
2021/05/28 08:43:59;;;;;;;13.70;3.55;;;;;;;15.61;100.00;100523.88;4805888;29;20035;-79
2021/05/28 08:47:04;;;;;;;12.07;3.63;;;;;;;15.56;100.00;100527.41;4806231;29;20039;-79
2021/05/28 08:50:08;;;;;;;6.13;2.15;;;;;;;15.62;100.00;100531.03;4806600;29;20047;-79
2021/05/28 08:53:13;;;;;;;5.25;2.60;;;;;;;15.77;100.00;100520.47;4807118;29;20045;-78
2021/05/28 08:56:16;;;;;;;11.05;3.17;;;;;;;15.98;100.00;100524.78;4807016;29;20062;-78
2021/05/28 08:59:20;;;;;;;11.50;2.33;;;;;;;16.13;100.00;100522.63;4807237;29;20389;-79
2021/05/28 09:02:50;;;;;;;6.53;2.38;;;;;;;16.28;100.00;100528.88;4796148;29;20393;-78
2021/05/28 09:05:56;;;;;;;5.60;1.83;;;;;;;16.23;100.00;100535.22;4806271;29;20050;-80
2021/05/28 09:09:16;;;;;;;2.45;2.15;;;;;;;16.27;100.00;100534.97;4824298;29;20045;-78
2021/05/28 09:12:26;;;;;;;6.68;2.08;;;;;;;16.43;100.00;100543.56;4824223;29;20049;-78
2021/05/28 09:15:29;;;;;;;7.10;1.33;;;;;;;16.64;100.00;100536.59;4824062;29;20049;-78
2021/05/28 09:18:42;;;;;;;3.28;0.77;;;;;;;16.85;100.00;100537.22;4823923;29;20499;-78
2021/05/28 09:21:54;;;;;;;3.70;1.40;;;;;;;16.92;100.00;100538.81;4823738;29;20058;-79
2021/05/28 09:24:58;;;;;;;3.65;1.13;;;;;;;17.01;100.00;100541.41;4824115;29;20109;-79
2021/05/28 09:28:08;;;;;;;4.55;2.08;;;;;;;17.04;100.00;100535.56;4824335;29;20053;-79
2021/05/28 09:31:39;;;;;;;3.75;1.50;;;;;;;17.13;100.00;100531.78;4825845;29;20049;-79
2021/05/28 09:34:50;;;;;;;5.57;1.55;;;;;;;17.27;100.00;100531.59;4825164;29;20045;-79
2021/05/28 09:37:53;;;;;;;4.57;1.42;;;;;;;17.32;100.00;100527.25;4824253;29;20045;-79
2021/05/28 09:40:56;;;;;;;8.40;1.42;;;;;;;17.37;100.00;100529.31;4823733;29;20053;-79
2021/05/28 09:44:10;;;;;;;4.80;1.42;;;;;;;17.30;100.00;100524.16;4823595;29;20400;-79
2021/05/28 09:47:18;;;;;;;7.72;2.50;;;;;;;17.28;100.00;100523.91;4823661;29;20054;-79
2021/05/28 09:50:22;;;;;;;13.90;2.08;;;;;;;17.40;100.00;100514.22;4823472;29;20046;-78
2021/05/28 09:53:41;;;;;;;5.20;1.30;;;;;;;17.56;100.00;100522.00;4826735;29;20492;-79
2021/05/28 09:56:44;;;;;;;9.77;2.83;;;;;;;17.77;100.00;100522.53;4826789;29;20532;-79
2021/05/28 09:59:47;;;;;;;3.25;1.02;;;;;;;17.85;100.00;100518.72;4815310;29;20065;-79
2021/05/28 10:03:15;;;;;;;3.75;1.02;;;;;;;17.89;100.00;100524.88;4826563;29;20495;-79
2021/05/28 10:06:18;;;;;;;2.05;1.25;;;;;;;17.87;100.00;100521.78;4824744;29;20065;-79
2021/05/28 10:09:23;;;;;;;0.88;0.20;;;;;;;18.11;100.00;100518.50;4808717;29;20058;-79
2021/05/28 10:12:27;;;;;;;1.08;0.30;;;;;;;18.38;100.00;100525.41;4808553;29;20057;-79
2021/05/28 10:15:30;;;;;;;1.83;0.38;;;;;;;18.61;100.00;100519.28;4809931;29;20523;-79
2021/05/28 10:18:33;;;;;;;2.60;0.30;;;;;;;18.83;100.00;100510.00;4809267;29;20054;-79
2021/05/28 10:21:37;;;;;;;0.32;0.17;;;;;;;18.92;100.00;100515.38;4808215;29;20054;-80
2021/05/28 10:24:40;;;;;;;1.30;0.32;;;;;;;18.88;100.00;100518.44;4808099;29;20141;-79
2021/05/28 10:27:51;;;;;;;2.58;0.30;;;;;;;18.82;100.00;100509.22;4807996;29;20045;-80
2021/05/28 10:30:55;;;;;;;0.13;0.10;;;;;;;18.85;100.00;100515.88;4796862;29;20060;-79
2021/05/28 10:34:01;;;;;;;0.13;0.10;;;;;;;18.91;100.00;100516.63;4808299;29;20119;-80
2021/05/28 10:37:04;;;;;;;1.05;0.15;;;;;;;18.93;100.00;100514.06;4796993;29;20070;-79
2021/05/28 10:40:31;;;;;;;0.52;0.50;;;;;;;18.82;100.00;100514.09;4807838;29;20376;-80
2021/05/28 10:43:36;;;;;;;0.32;0.20;;;;;;;18.70;100.00;100515.41;4807852;29;20045;-79
2021/05/28 10:46:53;;;;;;;0.40;0.10;;;;;;;18.54;100.00;100522.59;4807603;29;20384;-79
2021/05/28 10:50:03;;;;;;;0.73;0.10;;;;;;;18.56;100.00;100519.28;4807893;29;20388;-79
2021/05/28 10:53:10;;;;;;;1.10;0.20;;;;;;;18.58;100.00;100517.47;4807584;29;20062;-79
2021/05/28 10:56:13;;;;;;;1.13;0.30;;;;;;;18.57;100.00;100515.19;4807435;29;20050;-79
2021/05/28 10:59:19;;;;;;;1.95;0.35;;;;;;;18.59;100.00;100518.25;4807848;29;20058;-79
2021/05/28 11:02:47;;;;;;;0.95;0.28;;;;;;;18.74;100.00;100530.03;4806864;29;20050;-79
2021/05/28 11:05:52;;;;;;;0.55;0.35;;;;;;;18.86;100.00;100520.25;4807363;29;20054;-79
2021/05/28 11:09:06;;;;;;;1.63;0.80;;;;;;;18.86;100.00;100518.19;4825308;29;20402;-79
2021/05/28 11:12:10;;;;;;;1.00;0.30;;;;;;;18.89;100.00;100522.81;4825525;29;20476;-79
2021/05/28 11:15:27;;;;;;;6.25;1.10;;;;;;;19.04;100.00;100525.31;4825344;29;20049;-79
2021/05/28 11:18:32;;;;;;;3.85;0.40;;;;;;;19.10;100.00;100523.25;4825269;29;20531;-79
2021/05/28 11:21:40;;;;;;;3.63;0.40;;;;;;;19.15;100.00;100525.28;4825015;29;20053;-78
2021/05/28 11:24:51;;;;;;;8.75;1.33;;;;;;;19.21;100.00;100523.22;4825180;29;20045;-79
2021/05/28 11:28:22;;;;;;;1.83;0.30;;;;;;;19.37;100.00;100525.25;4825091;29;20061;-78
2021/05/28 11:31:29;;;;;;;4.00;1.00;;;;;;;19.62;100.00;100524.09;4825009;29;20045;-79
2021/05/28 11:35:07;;;;;;;1.65;0.10;;;;;;;19.85;100.00;100532.44;4825062;29;20388;-78
2021/05/28 11:38:14;;;;;;;0.73;0.17;;;;;;;20.04;100.00;100525.63;4824936;29;20499;-78
2021/05/28 11:41:18;;;;;;;2.38;0.65;;;;;;;20.05;100.00;100523.56;4825194;29;20503;-78
2021/05/28 11:44:22;;;;;;;9.27;1.15;;;;;;;19.99;99.40;100525.69;4827346;29;20049;-78
2021/05/28 11:47:26;;;;;;;5.07;0.95;;;;;;;19.96;99.00;100516.19;4826664;29;20404;-78
2021/05/28 11:50:39;;;;;;;0.88;0.20;;;;;;;19.98;96.45;100522.06;4825160;29;20514;-79
2021/05/28 11:53:43;;;;;;;2.47;0.28;;;;;;;19.94;95.33;100520.81;4824774;29;20045;-79
2021/05/28 11:56:52;;;;;;;2.05;0.35;;;;;;;19.84;93.23;100516.78;4824518;29;20050;-78
2021/05/28 11:59:57;;;;;;;0.20;0.20;;;;;;;19.74;100.00;100524.03;4824660;29;20054;-79
2021/05/28 12:03:01;;;;;;;2.42;0.40;;;;;;;19.73;99.19;100517.59;4824157;29;20053;-78
2021/05/28 12:06:08;;;;;;;8.88;0.75;;;;;;;19.64;100.00;100512.28;4813206;29;20065;-78
2021/05/28 12:09:11;;;;;;;0.95;0.10;;;;;;;19.40;96.86;100512.91;4806413;29;20046;-78
2021/05/28 12:12:14;;;;;;;0.93;0.45;;;;;;;19.32;100.00;100506.22;4806408;29;20042;-78
2021/05/28 12:15:20;;;;;;;1.48;0.20;;;;;;;19.41;100.00;100511.63;4806083;29;20046;-78
2021/05/28 12:18:29;;;;;;;1.45;0.38;;;;;;;19.46;95.90;100510.06;4806192;29;20046;-77
2021/05/28 12:21:32;;;;;;;0.80;0.08;;;;;;;19.48;94.46;100507.47;4806000;29;20067;-77
2021/05/28 12:24:42;;;;;;;3.00;0.40;;;;;;;19.50;93.68;100511.31;4805494;29;20038;-78
2021/05/28 12:27:46;;;;;;;1.92;0.43;;;;;;;19.57;93.71;100516.44;4793572;29;20419;-78
2021/05/28 12:31:01;;;;;;;0.60;0.10;;;;;;;19.53;93.84;100513.09;4805534;29;20049;-78
2021/05/28 12:34:08;;;;;;;0.65;0.30;;;;;;;19.65;93.72;100505.31;4805805;29;20126;-78
2021/05/28 12:37:14;;;;;;;1.35;0.28;;;;;;;19.70;91.50;100513.00;4805971;29;20070;-77
2021/05/28 12:40:20;;;;;;;0.75;0.20;;;;;;;19.93;86.76;100510.78;4805888;29;20042;-78
2021/05/28 12:43:27;;;;;;;2.17;0.40;;;;;;;20.07;81.33;100518.16;4805904;29;20050;-77
2021/05/28 12:46:34;;;;;;;2.47;0.60;;;;;;;20.30;94.12;100511.06;4805796;29;20057;-77
2021/05/28 12:49:37;;;;;;;0.35;0.25;;;;;;;20.45;89.83;100519.16;4805894;29;20046;-77
2021/05/28 12:52:40;;;;;;;0.45;0.10;;;;;;;20.42;83.45;100514.56;4805831;29;20392;-77
2021/05/28 12:55:54;;;;;;;1.27;0.20;;;;;;;20.46;87.19;100512.22;4805644;29;20053;-76
2021/05/28 12:58:57;;;;;;;0.40;0.10;;;;;;;20.34;79.03;100512.31;4805015;29;20055;-77
2021/05/28 13:02:18;;;;;;;0.98;0.30;;;;;;;20.14;74.57;100509.13;4806017;29;20471;-77
2021/05/28 13:05:31;;;;;;;1.52;0.35;;;;;;;20.02;70.19;100513.31;4805640;29;20046;-77
2021/05/28 13:08:34;;;;;;;0.73;0.10;;;;;;;19.99;76.29;100508.72;4787758;30;20042;-78
2021/05/28 13:11:47;;;;;;;0.10;0.10;;;;;;;20.19;78.22;100509.06;4789344;30;20046;-77
2021/05/28 13:14:54;;;;;;;0.50;0.30;;;;;;;20.34;89.98;100508.69;4787388;30;20508;-77
2021/05/28 13:17:58;;;;;;;3.35;0.32;;;;;;;20.35;87.81;100510.25;4787763;30;20512;-78
2021/05/28 13:21:23;;;;;;;1.15;0.15;;;;;;;20.25;76.70;100511.84;4787602;29;20069;-76
2021/05/28 13:24:41;;;;;;;0.40;0.10;;;;;;;20.25;79.21;100511.84;4787583;30;20058;-77
2021/05/28 13:28:08;;;;;;;0.93;0.38;;;;;;;20.24;88.06;100504.69;4790724;30;20047;-76
2021/05/28 13:31:15;;;;;;;2.38;0.13;;;;;;;20.27;86.76;100504.38;4791226;30;20056;-77
2021/05/28 13:34:19;;;;;;;0.95;0.32;;;;;;;20.23;87.65;100511.63;4790535;30;20381;-77
2021/05/28 13:37:22;;;;;;;0.73;0.40;;;;;;;20.22;94.51;100512.94;4790844;30;20461;-77
2021/05/28 13:40:26;;;;;;;1.27;0.30;;;;;;;20.23;90.95;100508.78;4791108;30;20050;-77
2021/05/28 13:43:30;;;;;;;1.95;0.20;;;;;;;20.21;88.40;100520.63;4779525;30;20058;-76
2021/05/28 13:46:33;;;;;;;1.13;0.10;;;;;;;20.16;87.36;100509.34;4791550;30;20051;-77
2021/05/28 13:49:37;;;;;;;0.65;0.20;;;;;;;20.04;82.12;100508.66;4790947;30;20046;-77
2021/05/28 13:52:41;;;;;;;1.58;0.40;;;;;;;20.01;91.75;100508.94;4790596;30;20070;-76
2021/05/28 13:55:46;;;;;;;0.20;0.10;;;;;;;20.06;96.06;100510.94;4790516;30;20050;-77
2021/05/28 13:58:50;;;;;;;0.30;0.10;;;;;;;19.99;95.26;100505.88;4790708;30;20066;-78
2021/05/28 14:01:54;;;;;;;4.32;0.45;;;;;;;19.95;98.59;100511.81;4801102;30;20068;-77
2021/05/28 14:04:58;;;;;;;0.52;0.20;;;;;;;19.83;94.60;100516.00;4796063;30;20038;-77
2021/05/28 14:08:01;;;;;;;2.05;0.73;;;;;;;19.75;95.55;100509.34;4819181;29;20041;-77
2021/05/28 14:11:05;;;;;;;2.30;0.40;;;;;;;19.79;100.00;100509.09;4826470;29;20113;-77
2021/05/28 14:14:09;;;;;;;1.23;0.30;;;;;;;19.83;100.00;100515.22;4826439;29;20050;-77
2021/05/28 14:17:13;;;;;;;0.20;0.00;;;;;;;19.72;100.00;100515.31;4826258;29;20053;-77
2021/05/28 14:20:22;;;;;;;2.38;0.40;;;;;;;19.71;100.00;100519.44;4826327;29;20069;-76
2021/05/28 14:23:25;;;;;;;0.85;0.38;;;;;;;19.68;100.00;100510.69;4826171;29;20057;-77